Time;durP1;ratioP1;P1;durP2;ratioP2;P2;SDS_P1;SDS_P2;PMS_P1;PMS_P2;Temp;Humidity;BMP_temperature;BMP_pressure;BME280_temperature;BME280_humidity;BME280_pressure;Samples;Min_cycle;Max_cycle;Signal;HPM_P1;HPM_P2
2022/01/25 00:08:52;;;;;;;66.85;35.55;;;;;;;1.17;81.61;100244.88;5000941;28;20122;-61
2022/01/25 00:27:43;;;;;;;66.10;35.42;;;;;;;1.67;82.46;100296.34;4998984;28;20038;-62
2022/01/25 00:32:47;;;;;;;69.38;35.97;;;;;;;1.71;82.66;100289.38;5004392;28;20107;-62
2022/01/25 00:35:12;;;;;;;66.57;34.97;;;;;;;1.82;82.10;100287.31;4999402;28;20488;-61
2022/01/25 00:37:38;;;;;;;66.78;36.08;;;;;;;1.77;82.86;100289.22;5004368;28;20041;-62
2022/01/25 00:40:04;;;;;;;65.97;36.05;;;;;;;1.74;83.50;100281.59;4995047;28;20034;-62
2022/01/25 00:42:30;;;;;;;72.68;37.95;;;;;;;1.77;82.80;100283.22;4948330;28;20468;-62
2022/01/25 00:44:55;;;;;;;68.43;35.88;;;;;;;1.79;83.52;100287.44;4981353;28;20037;-62
2022/01/25 00:47:21;;;;;;;68.57;36.25;;;;;;;1.92;84.15;100287.88;5000471;28;20037;-62
2022/01/25 00:49:51;;;;;;;69.68;37.47;;;;;;;1.94;84.08;100283.53;4999165;28;20053;-62
2022/01/25 00:52:22;;;;;;;72.50;39.00;;;;;;;1.88;84.01;100270.88;4991484;28;20441;-62
2022/01/25 00:54:50;;;;;;;73.57;38.25;;;;;;;2.02;84.10;100285.84;4994547;28;20061;-62
2022/01/25 00:57:15;;;;;;;71.75;37.72;;;;;;;2.05;83.89;100286.59;4979856;28;20405;-62
2022/01/25 00:59:41;;;;;;;65.13;35.83;;;;;;;2.08;83.90;100277.94;5000122;28;20179;-62
2022/01/25 01:02:09;;;;;;;68.38;37.97;;;;;;;2.04;83.68;100245.59;4998886;28;20041;-62
2022/01/25 01:04:35;;;;;;;69.50;36.40;;;;;;;1.81;84.15;100216.41;4996680;28;20036;-62
2022/01/25 01:07:03;;;;;;;71.03;38.08;;;;;;;2.10;84.54;100282.16;4987953;28;20508;-62
2022/01/25 01:09:32;;;;;;;72.25;37.47;;;;;;;2.23;84.50;100281.75;5002886;28;20052;-62
2022/01/25 01:12:06;;;;;;;69.43;36.58;;;;;;;2.17;85.39;100287.06;5003584;28;20502;-62
2022/01/25 01:31:12;;;;;;;68.03;36.33;;;;;;;2.44;84.92;100275.06;5002039;28;20168;-62
2022/01/25 01:44:25;;;;;;;72.57;36.83;;;;;;;2.42;85.31;100277.66;4985748;28;22662;-61
2022/01/25 01:47:11;;;;;;;70.07;35.65;;;;;;;2.30;85.68;100268.66;5004053;28;20069;-62
2022/01/25 01:49:44;;;;;;;71.97;36.78;;;;;;;2.24;86.48;100268.03;5001513;28;20591;-62
2022/01/25 01:52:11;;;;;;;72.20;37.72;;;;;;;2.24;86.67;100260.31;4993414;28;20033;-62
2022/01/25 01:54:36;;;;;;;68.28;35.30;;;;;;;2.30;86.92;100276.38;4986028;28;20048;-62
2022/01/25 01:57:03;;;;;;;70.15;37.38;;;;;;;2.37;86.48;100274.41;4999124;28;20038;-62
2022/01/25 01:59:28;;;;;;;69.38;35.55;;;;;;;2.39;86.38;100276.94;5000653;28;20068;-62
2022/01/25 02:01:54;;;;;;;75.63;38.10;;;;;;;2.26;86.83;100268.81;5000207;28;20565;-62
2022/01/25 02:04:19;;;;;;;73.88;37.47;;;;;;;2.05;86.60;100222.44;4999433;28;20680;-61
2022/01/25 02:06:45;;;;;;;67.82;36.72;;;;;;;2.04;86.50;100205.34;5001680;28;20052;-62
2022/01/25 02:09:11;;;;;;;72.88;36.95;;;;;;;2.33;86.71;100256.63;5001848;28;20037;-61
2022/01/25 02:11:37;;;;;;;75.65;38.05;;;;;;;2.30;87.11;100250.69;5001960;28;20037;-62
2022/01/25 02:14:06;;;;;;;69.18;36.65;;;;;;;2.00;87.75;100208.09;5003149;28;20026;-62
2022/01/25 02:24:42;;;;;;;71.35;37.92;;;;;;;2.27;88.62;100255.94;5006565;28;20045;-62
2022/01/25 02:27:07;;;;;;;72.00;37.92;;;;;;;2.25;89.31;100249.19;5004502;28;20045;-62
2022/01/25 02:29:33;;;;;;;74.97;39.05;;;;;;;2.35;88.53;100262.53;5003314;28;20476;-63
2022/01/25 02:31:58;;;;;;;73.30;38.45;;;;;;;2.43;88.10;100250.28;4985720;28;20571;-62
2022/01/25 02:34:25;;;;;;;71.55;40.40;;;;;;;2.39;88.34;100251.25;5003189;28;20029;-62
2022/01/25 02:37:07;;;;;;;79.90;39.65;;;;;;;2.44;88.76;100259.66;4990680;28;20199;-61
2022/01/25 02:39:34;;;;;;;80.35;39.88;;;;;;;2.39;88.87;100252.13;5009491;28;20084;-62
2022/01/25 02:42:00;;;;;;;72.97;39.95;;;;;;;2.35;89.08;100245.38;5006401;28;20046;-62
2022/01/25 02:44:28;;;;;;;74.82;39.30;;;;;;;2.41;89.40;100246.91;5009096;28;20037;-62
2022/01/25 02:49:34;;;;;;;73.30;39.38;;;;;;;2.48;87.27;100238.97;5007769;28;20530;-62
2022/01/25 02:52:01;;;;;;;72.30;36.08;;;;;;;2.47;87.84;100249.28;4991911;28;20155;-62
2022/01/25 02:54:27;;;;;;;75.43;40.67;;;;;;;2.47;88.42;100239.00;4977693;28;20045;-62
2022/01/25 02:56:52;;;;;;;78.15;40.75;;;;;;;2.50;88.88;100232.03;5008762;28;20037;-61
2022/01/25 02:59:18;;;;;;;79.95;40.33;;;;;;;2.59;87.54;100236.03;5007156;28;20698;-61
2022/01/25 03:01:44;;;;;;;81.68;42.80;;;;;;;2.46;87.85;100227.03;5010952;28;20060;-62
2022/01/25 03:04:11;;;;;;;77.18;42.92;;;;;;;2.56;87.87;100236.13;5008363;28;20145;-62
2022/01/25 03:06:37;;;;;;;76.70;40.70;;;;;;;2.23;87.00;100185.06;5007728;28;20097;-62
2022/01/25 03:09:04;;;;;;;78.55;41.05;;;;;;;2.50;86.82;100232.03;5004693;28;20125;-62
2022/01/25 03:11:29;;;;;;;84.40;41.80;;;;;;;2.49;87.17;100234.66;5007087;28;20042;-62
2022/01/25 03:13:59;;;;;;;80.47;42.33;;;;;;;2.25;86.64;100183.28;5009479;28;20049;-63
2022/01/25 03:16:39;;;;;;;76.50;39.85;;;;;;;2.52;86.42;100224.28;4989221;28;20026;-62
2022/01/25 03:21:55;;;;;;;78.10;38.85;;;;;;;2.56;86.01;100228.41;5007440;28;20045;-62
2022/01/25 03:24:21;;;;;;;80.05;39.42;;;;;;;2.59;85.97;100223.19;4988754;28;20045;-62
2022/01/25 03:26:46;;;;;;;77.38;40.08;;;;;;;2.60;86.25;100211.16;5005322;28;20038;-61
2022/01/25 03:29:12;;;;;;;78.65;40.03;;;;;;;2.64;86.17;100225.56;4987703;28;20608;-61
2022/01/25 03:31:37;;;;;;;78.15;41.25;;;;;;;2.61;85.75;100218.81;4998254;28;20030;-62
2022/01/25 03:34:02;;;;;;;74.65;39.92;;;;;;;2.20;85.69;100158.66;5002255;28;20037;-62
2022/01/25 03:36:28;;;;;;;74.35;38.78;;;;;;;2.55;85.86;100216.44;5000409;28;20120;-62
2022/01/25 03:38:54;;;;;;;74.70;40.33;;;;;;;2.46;85.76;100211.66;5004822;28;20038;-61
2022/01/25 03:41:20;;;;;;;75.90;41.67;;;;;;;2.55;85.67;100216.44;5004688;28;20880;-62
2022/01/25 03:43:52;;;;;;;74.70;39.72;;;;;;;2.52;85.72;100214.00;5004725;28;20045;-62
2022/01/25 03:46:25;;;;;;;75.82;39.90;;;;;;;2.48;85.62;100207.28;4990672;28;20080;-62
2022/01/25 03:51:34;;;;;;;62.92;32.90;;;;;;;2.60;84.86;100213.72;5001270;28;20115;-61
2022/01/25 03:54:00;;;;;;;77.63;39.97;;;;;;;2.57;85.70;100198.44;5006313;28;20490;-61
2022/01/25 03:56:26;;;;;;;74.45;40.88;;;;;;;2.59;84.86;100197.50;4991985;28;20346;-61
2022/01/25 03:58:52;;;;;;;81.47;40.85;;;;;;;2.55;85.42;100195.91;5001463;28;20041;-62
2022/01/25 04:01:18;;;;;;;77.28;40.80;;;;;;;2.60;85.92;100191.44;5005325;28;20053;-62
2022/01/25 04:04:08;;;;;;;79.50;40.50;;;;;;;2.62;84.99;100211.94;4981823;28;20037;-62
2022/01/25 04:06:31;;;;;;;83.60;42.60;;;;;;;2.57;85.31;100193.28;4998286;28;20592;-62
2022/01/25 04:08:59;;;;;;;76.45;39.00;;;;;;;2.54;85.41;100191.69;4989126;28;20034;-61
2022/01/25 04:11:24;;;;;;;79.95;41.88;;;;;;;2.62;84.46;100192.22;5002853;28;20113;-61
2022/01/25 04:13:52;;;;;;;71.80;38.28;;;;;;;2.57;84.73;100188.97;4988721;28;20132;-61
2022/01/25 04:16:23;;;;;;;74.50;40.17;;;;;;;2.54;85.02;100194.25;5003413;28;20493;-62
2022/01/25 04:26:50;;;;;;;73.90;39.40;;;;;;;2.73;84.95;100204.69;5005948;28;20052;-62
2022/01/25 04:29:15;;;;;;;76.97;40.70;;;;;;;2.76;84.96;100198.63;5002941;28;20041;-62
2022/01/25 04:31:41;;;;;;;81.63;42.47;;;;;;;2.67;84.67;100182.63;4979256;28;20029;-61
2022/01/25 04:50:05;;;;;;;72.78;38.35;;;;;;;2.66;85.90;100173.22;5000040;28;20048;-61
2022/01/25 04:52:38;;;;;;;78.90;41.30;;;;;;;2.82;85.30;100191.50;5001032;28;20026;-61
2022/01/25 04:57:51;;;;;;;74.07;41.40;;;;;;;2.71;85.32;100175.66;5002203;28;20138;-61
2022/01/25 05:00:22;;;;;;;81.35;41.50;;;;;;;2.79;85.24;100188.19;5003181;28;20041;-60
2022/01/25 05:03:46;;;;;;;80.10;42.53;;;;;;;2.83;84.98;100189.75;5003880;28;20129;-60
2022/01/25 05:05:53;;;;;;;79.57;40.53;;;;;;;2.90;84.87;100183.50;4999397;28;20270;-60
2022/01/25 05:08:44;;;;;;;78.50;42.72;;;;;;;2.86;84.79;100184.50;5001365;28;20030;-60
2022/01/25 05:11:13;;;;;;;76.78;41.38;;;;;;;2.91;85.26;100185.19;5003290;28;20173;-60
2022/01/25 05:13:51;;;;;;;78.13;41.47;;;;;;;2.78;85.10;100184.81;4974752;28;20053;-60
2022/01/25 05:16:46;;;;;;;78.75;40.97;;;;;;;2.79;85.28;100175.34;5002088;28;20034;-61
2022/01/25 05:19:23;;;;;;;71.85;38.60;;;;;;;2.84;84.34;100176.03;4996411;28;20401;-61
2022/01/25 05:22:18;;;;;;;75.40;39.28;;;;;;;2.79;85.35;100180.50;4990095;28;20041;-61
2022/01/25 05:24:44;;;;;;;75.80;40.38;;;;;;;2.72;85.70;100179.91;4989173;28;20033;-61
2022/01/25 05:27:12;;;;;;;82.72;43.00;;;;;;;2.63;85.72;100169.97;5004379;28;20034;-61
2022/01/25 05:29:38;;;;;;;75.68;41.15;;;;;;;2.75;85.43;100184.09;5002244;28;20042;-61
2022/01/25 05:32:04;;;;;;;80.70;41.35;;;;;;;2.43;85.13;100133.00;4997593;28;20034;-61
2022/01/25 05:34:31;;;;;;;74.25;40.17;;;;;;;2.69;85.13;100185.16;5003675;28;20050;-61
2022/01/25 05:36:56;;;;;;;81.30;44.40;;;;;;;2.70;84.92;100176.53;5002696;28;20042;-61
2022/01/25 05:39:27;;;;;;;76.50;40.35;;;;;;;2.64;84.40;100180.16;4992680;28;20034;-61
2022/01/25 05:41:59;;;;;;;80.80;42.38;;;;;;;2.28;83.54;100110.44;4999577;28;20049;-61
2022/01/25 05:44:38;;;;;;;76.15;41.33;;;;;;;2.58;83.58;100185.53;4998977;28;20072;-61
2022/01/25 05:47:06;;;;;;;79.03;42.03;;;;;;;2.62;83.75;100170.84;4986514;28;20061;-61
2022/01/25 05:49:37;;;;;;;76.82;39.78;;;;;;;2.50;83.99;100161.84;4991804;28;20042;-61
2022/01/25 05:52:04;;;;;;;81.78;43.45;;;;;;;2.22;83.59;100124.34;5003014;28;20033;-61
2022/01/25 05:54:29;;;;;;;74.15;40.60;;;;;;;2.25;83.89;100133.69;4986782;28;20045;-60
2022/01/25 05:56:55;;;;;;;76.75;41.05;;;;;;;2.54;83.57;100177.97;5002515;28;20504;-61
2022/01/25 05:59:20;;;;;;;75.45;40.45;;;;;;;2.52;83.36;100169.50;5003220;28;20040;-61
2022/01/25 06:01:46;;;;;;;82.30;41.25;;;;;;;2.53;83.33;100176.31;4999316;28;20112;-60
2022/01/25 06:04:11;;;;;;;79.35;42.55;;;;;;;2.39;82.88;100151.13;5002766;28;20037;-61
2022/01/25 06:06:37;;;;;;;75.65;41.20;;;;;;;2.57;83.03;100173.56;5004254;28;20030;-61
2022/01/25 06:09:03;;;;;;;84.47;42.05;;;;;;;2.62;82.51;100176.81;5001455;28;20046;-61
2022/01/25 06:11:29;;;;;;;77.82;39.92;;;;;;;2.39;82.45;100136.59;5003675;28;20037;-60
2022/01/25 06:13:54;;;;;;;77.95;42.33;;;;;;;2.68;82.60;100183.47;4972954;28;26446;-61
2022/01/25 06:16:19;;;;;;;76.30;40.70;;;;;;;2.58;82.19;100166.72;4986096;28;20038;-61
2022/01/25 06:18:45;;;;;;;76.78;40.10;;;;;;;2.37;81.89;100128.06;4993218;28;20499;-61
2022/01/25 06:21:10;;;;;;;75.35;40.78;;;;;;;2.66;82.19;100175.81;5003848;28;20034;-60
2022/01/25 06:23:36;;;;;;;76.75;41.65;;;;;;;2.66;82.42;100175.81;5003373;28;20580;-61
2022/01/25 06:26:02;;;;;;;79.20;40.80;;;;;;;2.66;82.53;100174.97;4995944;28;20557;-61
2022/01/25 06:28:27;;;;;;;79.05;40.97;;;;;;;2.61;82.27;100164.03;5001523;28;20042;-61
2022/01/25 06:30:53;;;;;;;76.15;39.90;;;;;;;2.69;82.27;100167.16;5001805;28;20065;-60
2022/01/25 06:33:18;;;;;;;77.20;41.17;;;;;;;2.64;82.46;100157.03;4994489;28;20042;-61
2022/01/25 06:35:47;;;;;;;79.63;39.63;;;;;;;2.68;82.65;100166.34;4991007;28;20029;-61
2022/01/25 06:38:13;;;;;;;74.10;39.30;;;;;;;2.76;81.77;100158.34;4994839;28;20108;-61
2022/01/25 06:40:39;;;;;;;80.22;40.08;;;;;;;2.73;81.45;100158.44;4979949;28;20767;-61
2022/01/25 06:43:04;;;;;;;77.75;41.25;;;;;;;2.76;81.36;100154.94;4998587;28;20041;-61
2022/01/25 06:45:30;;;;;;;74.38;39.58;;;;;;;2.73;81.27;100148.16;4999039;28;20037;-61
2022/01/25 06:47:55;;;;;;;76.43;40.35;;;;;;;2.69;81.56;100156.88;5000463;28;20042;-61
2022/01/25 06:50:25;;;;;;;81.15;40.08;;;;;;;2.74;81.44;100160.13;5002447;28;20765;-61
2022/01/25 06:52:51;;;;;;;78.30;41.35;;;;;;;2.77;81.54;100169.44;5003473;28;20037;-61
2022/01/25 06:55:17;;;;;;;81.22;41.88;;;;;;;2.75;80.88;100151.50;5001523;28;20103;-61
2022/01/25 06:57:44;;;;;;;73.65;40.38;;;;;;;2.81;81.33;100171.00;5003304;28;20666;-61
2022/01/25 07:00:13;;;;;;;74.47;39.70;;;;;;;2.83;80.57;100171.78;4996006;28;20469;-60
2022/01/25 07:02:38;;;;;;;79.03;41.85;;;;;;;2.85;80.58;100164.88;4997312;28;20038;-61
2022/01/25 07:05:04;;;;;;;79.45;42.10;;;;;;;2.86;79.35;100164.78;5006358;28;20393;-61
2022/01/25 07:07:30;;;;;;;73.95;38.92;;;;;;;2.88;79.77;100164.75;5006348;28;20030;-62
2022/01/25 07:09:56;;;;;;;76.53;39.45;;;;;;;2.91;78.90;100161.22;5003888;28;20036;-61
2022/01/25 07:12:22;;;;;;;73.50;39.67;;;;;;;2.89;79.18;100164.69;4994965;28;20034;-60
2022/01/25 07:14:47;;;;;;;73.90;40.30;;;;;;;2.96;78.98;100161.91;4995196;28;20519;-61
2022/01/25 07:17:13;;;;;;;77.88;39.10;;;;;;;2.86;79.87;100154.50;4979028;28;20461;-62
2022/01/25 07:19:38;;;;;;;77.45;39.15;;;;;;;2.92;80.01;100158.59;4993674;28;20042;-61
2022/01/25 07:22:04;;;;;;;76.40;40.13;;;;;;;2.91;79.83;100149.22;4992341;28;20140;-61
2022/01/25 07:24:29;;;;;;;79.97;41.83;;;;;;;2.89;80.26;100164.69;4978008;28;20899;-61
2022/01/25 07:26:54;;;;;;;76.32;40.83;;;;;;;2.91;80.17;100167.19;4991022;28;20605;-61
2022/01/25 07:29:20;;;;;;;72.35;37.58;;;;;;;2.79;79.61;100145.41;4992363;28;20040;-61
2022/01/25 07:31:45;;;;;;;77.25;41.88;;;;;;;2.84;79.83;100156.31;4991584;28;20760;-61
2022/01/25 07:34:11;;;;;;;73.32;39.20;;;;;;;2.86;79.82;100172.50;4993192;28;20493;-61
2022/01/25 07:36:38;;;;;;;76.05;40.58;;;;;;;2.95;80.26;100167.91;4991786;28;20496;-61
2022/01/25 07:39:05;;;;;;;75.55;39.97;;;;;;;2.99;79.59;100174.59;4993125;28;20030;-61
2022/01/25 07:41:30;;;;;;;90.10;40.60;;;;;;;2.86;79.77;100163.97;4974063;28;20053;-61
2022/01/25 07:43:57;;;;;;;76.93;40.08;;;;;;;2.92;79.67;100163.75;4990426;28;20030;-62
2022/01/25 07:46:22;;;;;;;76.70;40.83;;;;;;;2.92;79.09;100165.47;4991970;28;20633;-61
2022/01/25 07:48:48;;;;;;;79.25;39.67;;;;;;;2.74;79.27;100125.88;4990786;28;20030;-61
2022/01/25 07:51:13;;;;;;;72.50;39.47;;;;;;;2.79;79.21;100126.56;4998668;28;20378;-61
2022/01/25 07:53:39;;;;;;;77.15;39.28;;;;;;;2.75;79.56;100127.56;4987841;28;20249;-62
2022/01/25 07:56:05;;;;;;;80.38;40.03;;;;;;;3.06;79.35;100169.16;4994516;28;20432;-62
2022/01/25 07:58:31;;;;;;;76.72;38.88;;;;;;;3.08;79.20;100157.13;4994974;28;20030;-62
2022/01/25 08:00:56;;;;;;;72.88;39.25;;;;;;;3.16;79.20;100164.53;4992575;28;20509;-62
2022/01/25 08:03:22;;;;;;;79.30;40.90;;;;;;;3.01;78.65;100136.84;4993065;28;20034;-61
2022/01/25 08:05:50;;;;;;;74.90;39.70;;;;;;;3.15;78.20;100156.88;4998375;28;20028;-60
2022/01/25 08:08:16;;;;;;;78.55;39.63;;;;;;;2.82;77.26;100098.19;4996587;28;20037;-61
2022/01/25 08:10:41;;;;;;;64.10;31.30;;;;;;;2.91;77.72;100097.81;4993557;28;20504;-61
2022/01/25 08:13:06;;;;;;;76.28;38.88;;;;;;;3.16;77.76;100155.97;4991796;28;20181;-60
2022/01/25 08:15:32;;;;;;;71.82;38.75;;;;;;;2.99;78.01;100115.50;4990045;28;20030;-60
2022/01/25 08:17:57;;;;;;;75.15;39.65;;;;;;;3.28;76.98;100142.63;4991128;28;20080;-59
2022/01/25 08:20:22;;;;;;;73.75;38.53;;;;;;;3.33;76.42;100152.75;4997334;28;20512;-63
2022/01/25 08:22:49;;;;;;;75.20;38.33;;;;;;;3.21;75.87;100139.50;4996662;28;20034;-61
2022/01/25 08:25:15;;;;;;;136.73;43.42;;;;;;;3.26;76.42;100152.97;5001094;28;20034;-61
2022/01/25 08:27:40;;;;;;;115.13;41.70;;;;;;;3.27;76.36;100153.84;4979349;28;20045;-61
2022/01/25 08:30:06;;;;;;;102.53;40.40;;;;;;;3.20;76.61;100147.25;4992819;28;20491;-61
2022/01/25 08:32:32;;;;;;;138.73;48.50;;;;;;;3.07;77.07;100136.63;5000935;28;20022;-60
2022/01/25 08:34:58;;;;;;;116.22;44.22;;;;;;;3.05;77.38;100138.41;4986683;28;20045;-61
2022/01/25 08:37:24;;;;;;;76.18;37.83;;;;;;;2.81;76.63;100092.22;4981992;28;20123;-61
2022/01/25 08:39:49;;;;;;;87.25;37.50;;;;;;;3.18;75.89;100141.34;4994428;28;20144;-61
2022/01/25 08:42:15;;;;;;;109.82;43.90;;;;;;;2.74;76.64;100088.22;4993591;28;20030;-61
2022/01/25 08:44:40;;;;;;;117.43;42.33;;;;;;;3.11;76.57;100143.31;4991794;28;20160;-61
2022/01/25 08:47:07;;;;;;;76.22;39.35;;;;;;;3.09;75.79;100142.53;4993100;28;20030;-61
2022/01/25 08:49:33;;;;;;;132.23;41.97;;;;;;;3.12;76.45;100131.28;4994724;28;20061;-60
2022/01/25 08:51:58;;;;;;;89.03;38.55;;;;;;;2.82;76.16;100087.91;4992085;28;20025;-61
2022/01/25 08:54:25;;;;;;;84.88;39.42;;;;;;;2.77;76.45;100082.09;4996968;28;20042;-61
2022/01/25 08:56:54;;;;;;;83.60;39.03;;;;;;;3.08;75.76;100133.13;4963783;28;20101;-61
2022/01/25 08:59:20;;;;;;;88.68;37.45;;;;;;;3.09;75.10;100127.13;4999834;28;20061;-61
2022/01/25 09:01:45;;;;;;;98.97;39.47;;;;;;;3.04;74.77;100116.16;5001141;28;20376;-60
2022/01/25 09:04:11;;;;;;;85.28;35.10;;;;;;;2.76;74.70;100071.00;5003683;28;20034;-61
2022/01/25 09:06:36;;;;;;;87.78;39.80;;;;;;;3.02;74.81;100123.94;5004442;28;20032;-61
2022/01/25 09:09:08;;;;;;;71.82;34.63;;;;;;;2.80;74.45;100087.97;4996529;28;20129;-61
2022/01/25 09:11:39;;;;;;;71.20;35.53;;;;;;;3.08;74.19;100123.72;5003892;28;20088;-61
2022/01/25 09:14:06;;;;;;;72.22;34.45;;;;;;;2.82;74.21;100085.34;4997281;28;20033;-60
2022/01/25 09:16:35;;;;;;;62.92;33.03;;;;;;;2.87;73.36;100093.72;5005780;28;20117;-61
2022/01/25 09:19:01;;;;;;;73.45;34.28;;;;;;;3.08;73.41;100128.00;4998447;28;20424;-61
2022/01/25 09:21:26;;;;;;;68.65;35.30;;;;;;;3.13;73.28;100138.13;5002187;28;20030;-61
2022/01/25 09:23:52;;;;;;;71.13;34.17;;;;;;;3.12;73.22;100139.84;4999233;28;20803;-61
2022/01/25 09:26:17;;;;;;;71.05;36.72;;;;;;;3.05;73.81;100112.72;5000484;28;20030;-61
2022/01/25 09:28:43;;;;;;;68.40;33.60;;;;;;;3.07;74.07;100114.31;5002177;28;20064;-61
2022/01/25 09:31:08;;;;;;;65.80;35.30;;;;;;;3.19;73.63;100125.00;5003183;28;20032;-61
2022/01/25 09:33:33;;;;;;;71.90;35.95;;;;;;;2.78;73.60;100071.78;4987664;28;20034;-60
2022/01/25 09:35:59;;;;;;;69.50;35.75;;;;;;;3.14;73.56;100120.06;4998157;28;20405;-61
2022/01/25 09:38:25;;;;;;;65.65;34.15;;;;;;;3.19;73.92;100120.69;4969330;28;20069;-61
2022/01/25 09:40:51;;;;;;;61.20;34.08;;;;;;;3.17;73.80;100122.50;4997159;28;20026;-61
2022/01/25 09:43:17;;;;;;;60.15;33.13;;;;;;;3.24;72.47;100121.34;4998760;28;20039;-61
2022/01/25 09:45:42;;;;;;;66.32;33.67;;;;;;;3.23;72.16;100113.69;5003944;28;20100;-61
2022/01/25 09:48:08;;;;;;;59.83;30.48;;;;;;;2.94;72.51;100068.59;5002025;28;20108;-61
2022/01/25 09:50:36;;;;;;;62.42;32.67;;;;;;;3.22;72.07;100115.44;5002318;28;20030;-61
2022/01/25 09:53:05;;;;;;;62.35;31.17;;;;;;;3.33;72.34;100109.88;5003187;28;20029;-62
2022/01/25 09:55:33;;;;;;;63.20;32.13;;;;;;;3.32;72.53;100109.94;5005232;28;20116;-61
2022/01/25 09:57:59;;;;;;;65.55;33.30;;;;;;;3.39;72.45;100121.63;4982021;28;20485;-61
2022/01/25 10:00:28;;;;;;;56.08;30.00;;;;;;;3.40;71.62;100115.63;4993249;28;20026;-61
2022/01/25 10:05:37;;;;;;;59.88;29.98;;;;;;;3.48;71.43;100110.97;4998642;28;20038;-61
2022/01/25 10:08:10;;;;;;;59.38;30.67;;;;;;;3.44;71.42;100101.72;4995303;28;20370;-61
2022/01/25 10:10:40;;;;;;;57.00;29.40;;;;;;;3.44;71.40;100107.69;4980603;28;20026;-61
2022/01/25 10:13:14;;;;;;;58.63;30.63;;;;;;;3.58;70.73;100098.59;4993932;28;20495;-61
2022/01/25 10:15:40;;;;;;;61.80;31.50;;;;;;;3.69;70.63;100105.84;4990363;28;20038;-62
2022/01/25 10:18:05;;;;;;;58.30;30.38;;;;;;;3.43;70.63;100056.31;4994954;28;20030;-61
2022/01/25 10:20:36;;;;;;;56.83;28.95;;;;;;;3.63;69.52;100089.78;4992555;28;20030;-62
2022/01/25 10:23:09;;;;;;;60.95;29.75;;;;;;;3.73;70.00;100097.94;4988585;28;20049;-61
2022/01/25 10:25:46;;;;;;;56.97;29.50;;;;;;;3.84;70.29;100095.75;4998479;28;20029;-62
2022/01/25 10:28:14;;;;;;;54.28;28.55;;;;;;;3.83;69.46;100095.78;4996695;28;20030;-62
2022/01/25 10:30:49;;;;;;;57.10;30.55;;;;;;;3.89;70.39;100100.69;4996175;28;20026;-62
2022/01/25 10:33:28;;;;;;;54.20;29.27;;;;;;;3.86;69.69;100087.97;5003955;28;20030;-62
2022/01/25 10:35:56;;;;;;;60.72;30.75;;;;;;;3.87;69.81;100076.78;5001950;28;20401;-62
2022/01/25 10:38:32;;;;;;;57.78;29.20;;;;;;;3.71;68.29;100042.31;5004420;28;20766;-61
2022/01/25 10:41:01;;;;;;;59.53;29.52;;;;;;;4.01;68.08;100084.72;4986986;28;20061;-62
2022/01/25 10:43:27;;;;;;;58.50;29.67;;;;;;;3.96;67.89;100081.53;4988567;28;20033;-62
2022/01/25 10:46:07;;;;;;;58.70;29.23;;;;;;;3.79;68.34;100032.50;4992443;28;20052;-61
2022/01/25 10:48:34;;;;;;;57.25;29.40;;;;;;;3.93;67.58;100065.38;5004688;28;20021;-62
2022/01/25 10:51:07;;;;;;;56.75;29.08;;;;;;;3.70;68.56;100036.31;4998141;28;20021;-61
2022/01/25 10:53:32;;;;;;;57.30;29.67;;;;;;;3.93;68.94;100071.34;5007445;28;20101;-62
2022/01/25 10:56:02;;;;;;;51.85;27.77;;;;;;;4.00;69.51;100059.06;5005069;28;20735;-61
2022/01/25 10:58:28;;;;;;;53.15;28.42;;;;;;;3.71;67.90;100008.88;5005781;28;20033;-61
2022/01/25 11:00:54;;;;;;;55.65;30.23;;;;;;;3.97;67.76;100047.16;4996189;28;20027;-62
2022/01/25 11:03:30;;;;;;;54.03;29.42;;;;;;;4.14;67.58;100051.53;5005677;28;20044;-61
2022/01/25 11:05:56;;;;;;;53.15;29.08;;;;;;;3.85;68.44;100016.78;5001392;28;20034;-62
2022/01/25 11:08:24;;;;;;;53.67;29.35;;;;;;;4.11;68.51;100056.84;5003092;28;20026;-61
2022/01/25 11:10:55;;;;;;;58.95;29.52;;;;;;;4.10;69.22;100055.16;4990064;28;20026;-61
2022/01/25 11:13:41;;;;;;;57.50;31.55;;;;;;;4.13;67.95;100054.19;4999776;28;20829;-62
2022/01/25 11:16:12;;;;;;;58.13;30.95;;;;;;;4.15;67.66;100034.38;4992766;28;20083;-62
2022/01/25 11:18:38;;;;;;;55.55;30.42;;;;;;;4.27;68.09;100049.28;4990500;28;20992;-61
2022/01/25 11:21:06;;;;;;;58.63;32.05;;;;;;;3.91;69.67;99983.09;4993715;28;20036;-62
2022/01/25 11:23:33;;;;;;;52.13;29.27;;;;;;;3.96;69.00;99982.88;4984380;28;20146;-62
2022/01/25 11:26:02;;;;;;;57.97;30.27;;;;;;;4.32;68.44;100024.13;4991492;28;20045;-61
2022/01/25 11:28:30;;;;;;;54.97;29.52;;;;;;;4.34;68.63;100029.22;4981110;28;20117;-62
2022/01/25 11:30:55;;;;;;;54.33;29.73;;;;;;;4.37;68.45;100024.75;4994820;28;20145;-62
2022/01/25 11:33:21;;;;;;;59.05;32.17;;;;;;;4.40;69.33;100031.53;5002523;28;20588;-61
2022/01/25 11:35:49;;;;;;;51.85;28.38;;;;;;;4.51;68.99;100025.84;5001016;28;20037;-61
2022/01/25 11:38:14;;;;;;;55.80;30.20;;;;;;;4.46;69.88;100020.09;5004700;28;20022;-62
2022/01/25 11:40:46;;;;;;;56.78;30.42;;;;;;;4.41;68.40;100003.09;4988536;28;20400;-62
2022/01/25 11:43:14;;;;;;;59.70;30.40;;;;;;;4.39;68.54;100011.81;5003714;28;20026;-61
2022/01/25 11:45:43;;;;;;;59.45;29.80;;;;;;;4.22;68.59;99953.38;4986947;28;20072;-62
2022/01/25 11:48:09;;;;;;;52.05;29.60;;;;;;;4.56;68.98;99993.84;4986703;28;20305;-62
2022/01/25 11:50:41;;;;;;;58.70;30.83;;;;;;;4.53;67.65;99988.81;4987352;28;20026;-61
2022/01/25 11:53:10;;;;;;;53.55;29.27;;;;;;;4.58;67.40;99979.13;4989425;28;20045;-61
2022/01/25 11:55:48;;;;;;;53.67;28.98;;;;;;;4.48;67.89;99977.91;4995099;28;20258;-61
2022/01/25 11:58:26;;;;;;;55.63;29.80;;;;;;;4.60;67.42;99979.91;4991836;28;20032;-61
2022/01/25 12:00:57;;;;;;;54.22;30.40;;;;;;;4.59;68.72;99974.81;4996643;28;20114;-61
2022/01/25 12:03:31;;;;;;;57.03;30.48;;;;;;;4.60;68.74;99966.19;4994606;28;20081;-61
2022/01/25 12:06:17;;;;;;;53.58;30.52;;;;;;;4.55;68.26;99961.25;4996368;28;20050;-61
2022/01/25 12:11:30;;;;;;;56.03;30.67;;;;;;;4.67;69.43;99952.06;4991590;28;20041;-61
2022/01/25 12:14:25;;;;;;;56.00;29.40;;;;;;;4.39;68.01;99899.31;4997535;28;20280;-61
2022/01/25 12:17:02;;;;;;;59.30;30.80;;;;;;;4.72;69.59;99950.13;4994081;28;20033;-61
2022/01/25 12:19:32;;;;;;;54.10;29.52;;;;;;;4.69;68.31;99939.97;4996281;28;20033;-62
2022/01/25 12:22:03;;;;;;;55.47;30.15;;;;;;;4.81;69.41;99928.22;5007248;28;20030;-61
2022/01/25 12:27:10;;;;;;;50.05;28.55;;;;;;;4.78;66.92;99921.50;5006773;28;20041;-61
2022/01/25 12:29:44;;;;;;;55.83;29.60;;;;;;;4.80;68.65;99914.50;5004698;28;20026;-61
2022/01/25 12:32:24;;;;;;;54.38;28.45;;;;;;;4.82;67.36;99904.97;5003899;28;20121;-64
2022/01/25 12:35:01;;;;;;;52.60;27.92;;;;;;;4.94;65.94;99915.56;5000295;28;20116;-64
2022/01/25 12:37:55;;;;;;;57.47;30.48;;;;;;;4.96;67.14;99911.97;4996386;28;20138;-64
2022/01/25 12:40:26;;;;;;;52.63;28.42;;;;;;;5.05;66.65;99902.94;4995496;28;20097;-64
2022/01/25 12:42:57;;;;;;;55.90;29.08;;;;;;;4.94;67.04;99897.50;4998051;28;20034;-64
2022/01/25 12:45:25;;;;;;;58.70;29.98;;;;;;;4.95;67.38;99883.72;5001169;28;20085;-64
2022/01/25 12:47:59;;;;;;;47.30;27.60;;;;;;;4.97;65.93;99887.88;5002446;28;20268;-64
2022/01/25 12:50:25;;;;;;;51.78;28.48;;;;;;;4.84;65.80;99867.94;4984611;28;20116;-63
2022/01/25 12:52:51;;;;;;;57.20;30.20;;;;;;;4.67;68.53;99822.44;5001096;28;20133;-64
2022/01/25 12:55:22;;;;;;;52.40;29.33;;;;;;;4.92;66.26;99860.69;5005141;28;20030;-67
2022/01/25 12:57:50;;;;;;;52.25;30.13;;;;;;;5.06;67.47;99857.41;5002506;28;20018;-63
2022/01/25 13:00:16;;;;;;;61.40;31.35;;;;;;;5.08;69.59;99853.81;5004146;28;20041;-63
2022/01/25 13:02:41;;;;;;;56.22;30.33;;;;;;;4.99;70.12;99851.72;4995901;28;20504;-64
2022/01/25 13:05:17;;;;;;;51.08;28.83;;;;;;;5.05;69.16;99848.00;5001467;28;20462;-64
2022/01/25 13:07:43;;;;;;;57.15;31.08;;;;;;;5.00;67.21;99851.66;4996910;28;20481;-64